Metropolitan Oakland International Airport
KOAK : now visible

Airfield :











YOU CAN JOIN US ON...

 
LOGIN :

Register | Disclaimer

   EN    FR    IT 

 









Legend :    VFR   Marginal VFR   IFR   Intensive IFR   Very Intensive IFR
Visi :
Ceiling :
>= 8 km
>= 3000ft
5 to 8 km
1000 to 3000 ft
1500m to 5 km
500 to 1000 ft
800 to 1500m
200 to 500 ft
< 800m
< 200 ft
Symbols :   Thunderstorms  Fog  Heavy snow  Heavy precipitations  Wind > 20 kt







- Airport Elevation : 9 ft
- IATA code : OAK


KOAK - Metropolitan Oakland International

CURRENT METAR :
  • 200953Z 04003KT 10SM CLR 14/10 A2994 RMK AO2 SLP137 T01440100

EXPIRED METARs :
  • 200853Z 07004KT 10SM CLR 15/11 A2994 RMK AO2 SLP138 T01500106 53005
  • 200753Z 00000KT 10SM CLR 14/10 A2993 RMK AO2 SLP135 T01440100 402440128

TAF KOAK
Valid from the 20 at 06:00 until the 21 at 12:00 UTC


200527Z 2006/2112 28006KT P6SM SKC
FM200700 VRB03KT P6SM FEW010
FM201500 24005KT P6SM FEW012
FM202100 30011KT P6SM SKC
FM210400 32005KT P6SM SKC
No reported NOTAMs for that airfield.



MET'MAP, your aeronautical weather chart ! - Copyright ORBIFLY December 2007 - Disclaimer

ORBIFLY MET'MAP TEAM :

Programming & Development : Alexandra Zaïnal
Concept & Development : Baudouin d'Aumeries
Co-Development & Prog : Marc-Olivier Méhu
Technical & hardware support : Manuel Goepfert

Contact : metmap@orbifly.com




SOURCES & CREDITS :

   NOAA       Earth
Advisory